Time;durP1;ratioP1;P1;durP2;ratioP2;P2;SDS_P1;SDS_P2;PMS_P1;PMS_P2;Temp;Humidity;BMP_temperature;BMP_pressure;BME280_temperature;BME280_humidity;BME280_pressure;Samples;Min_cycle;Max_cycle;Signal;HPM_P1;HPM_P2
2021/11/24 00:02:36;;;;;;;11.68;9.10;;;;;;;7.29;95.06;102898.53;10589358;28;20070;-79
2021/11/24 00:07:39;;;;;;;19.95;11.40;;;;;;;7.31;94.94;102899.28;10587814;28;20036;-79
2021/11/24 00:12:40;;;;;;;12.50;9.82;;;;;;;7.30;95.10;102897.56;10587081;28;20389;-79
2021/11/24 00:17:40;;;;;;;17.35;9.50;;;;;;;7.29;95.12;102885.91;10588316;28;20031;-79
2021/11/24 00:22:40;;;;;;;10.50;9.40;;;;;;;7.26;95.09;102893.41;10554526;28;20039;-79
2021/11/24 00:27:41;;;;;;;14.07;10.27;;;;;;;7.23;95.56;102887.28;10571788;28;20043;-79
2021/11/24 00:32:41;;;;;;;14.90;9.65;;;;;;;7.28;95.41;102888.75;10587554;28;20031;-80
2021/11/24 00:37:42;;;;;;;15.90;11.10;;;;;;;7.32;95.07;102890.22;10587617;28;20039;-79
2021/11/24 00:42:42;;;;;;;18.63;10.55;;;;;;;7.35;95.06;102879.16;10569756;28;20415;-79
2021/11/24 00:47:43;;;;;;;14.05;8.52;;;;;;;7.38;94.87;102878.91;10567265;28;20045;-79
2021/11/24 00:52:43;;;;;;;22.10;11.80;;;;;;;7.41;94.99;102884.06;10585492;28;20046;-79
2021/11/24 00:57:43;;;;;;;20.00;11.80;;;;;;;7.39;94.94;102869.84;10584083;28;20063;-79
2021/11/24 01:02:44;;;;;;;24.95;15.50;;;;;;;7.39;95.18;102868.00;10565803;28;20035;-80
2021/11/24 01:07:44;;;;;;;23.00;13.30;;;;;;;7.40;95.43;102860.75;10585533;28;20390;-79
2021/11/24 01:12:45;;;;;;;15.95;11.85;;;;;;;7.45;95.38;102858.53;10567817;28;20031;-79
2021/11/24 01:17:45;;;;;;;21.38;15.95;;;;;;;7.47;95.27;102848.50;10584638;28;20567;-78
2021/11/24 01:22:46;;;;;;;20.80;14.77;;;;;;;7.48;95.57;102839.41;10585808;28;20044;-79
2021/11/24 01:27:46;;;;;;;23.20;15.90;;;;;;;7.49;95.47;102835.72;10585005;28;20078;-79
2021/11/24 01:32:46;;;;;;;25.98;18.35;;;;;;;7.54;95.78;102843.44;10568712;28;20040;-79
2021/11/24 01:37:47;;;;;;;18.17;15.52;;;;;;;7.54;95.62;102836.22;10583582;28;20039;-79
2021/11/24 01:42:47;;;;;;;21.35;15.63;;;;;;;7.58;95.84;102839.50;10583346;28;20036;-79
2021/11/24 01:47:48;;;;;;;26.42;17.35;;;;;;;7.60;95.60;102834.84;10564388;28;20035;-79
2021/11/24 01:52:48;;;;;;;24.98;15.32;;;;;;;7.59;95.14;102828.56;10564325;28;20177;-79
2021/11/24 01:57:49;;;;;;;25.75;16.98;;;;;;;7.58;95.44;102829.56;10583291;28;20034;-79
2021/11/24 02:02:50;;;;;;;46.22;17.05;;;;;;;7.52;95.76;102827.38;10582592;28;20126;-79
2021/11/24 02:07:51;;;;;;;20.67;16.58;;;;;;;7.54;95.88;102821.88;10587380;28;20064;-79
2021/11/24 02:12:51;;;;;;;26.27;18.80;;;;;;;7.55;95.93;102808.25;10593390;28;20431;-79
2021/11/24 02:17:52;;;;;;;18.02;15.38;;;;;;;7.58;95.71;102805.28;10593772;28;20408;-79
2021/11/24 02:22:52;;;;;;;31.08;16.80;;;;;;;7.60;95.65;102797.94;10593113;28;20115;-79
2021/11/24 02:27:52;;;;;;;25.25;18.05;;;;;;;7.55;95.88;102796.63;10573177;28;20390;-79
2021/11/24 02:32:53;;;;;;;31.75;17.65;;;;;;;7.54;96.49;102781.44;10592123;28;20038;-79
2021/11/24 02:37:53;;;;;;;24.15;18.88;;;;;;;7.57;95.91;102776.63;10557262;28;20427;-79
2021/11/24 02:42:54;;;;;;;24.55;17.98;;;;;;;7.62;95.99;102766.28;10591039;28;20116;-79
2021/11/24 02:47:54;;;;;;;25.85;19.88;;;;;;;7.65;95.84;102762.47;10591929;28;20031;-80
2021/11/24 02:52:54;;;;;;;20.48;16.55;;;;;;;7.64;96.00;102752.69;10592444;28;20506;-81
2021/11/24 02:57:55;;;;;;;25.13;19.02;;;;;;;7.61;96.11;102745.72;10573365;28;20066;-79
2021/11/24 03:02:55;;;;;;;24.95;18.48;;;;;;;7.57;95.80;102749.66;10590246;28;20092;-79
2021/11/24 03:07:56;;;;;;;29.23;17.50;;;;;;;7.54;95.92;102733.75;10589379;28;20108;-80
2021/11/24 03:12:57;;;;;;;22.55;17.50;;;;;;;7.59;96.07;102733.34;10570414;28;20036;-79
2021/11/24 03:17:57;;;;;;;25.98;18.67;;;;;;;7.62;95.90;102733.94;10570509;28;20055;-79
2021/11/24 03:22:58;;;;;;;24.38;19.63;;;;;;;7.64;95.75;102712.25;10589125;28;20036;-79
2021/11/24 03:27:58;;;;;;;23.83;17.30;;;;;;;7.62;95.98;102709.66;10571872;28;20051;-78
2021/11/24 03:32:59;;;;;;;29.00;16.75;;;;;;;7.60;95.94;102698.19;10588785;28;20080;-79
2021/11/24 03:38:01;;;;;;;28.08;19.83;;;;;;;7.61;95.98;102690.94;10589534;28;20038;-79
2021/11/24 03:43:01;;;;;;;24.10;17.38;;;;;;;7.65;95.99;102693.22;10570859;28;20039;-79
2021/11/24 03:48:03;;;;;;;29.50;17.13;;;;;;;7.64;95.95;102686.13;10570732;28;20036;-79
2021/11/24 03:53:03;;;;;;;21.65;17.67;;;;;;;7.66;96.19;102675.22;10589402;28;20031;-79
2021/11/24 03:58:04;;;;;;;28.48;17.17;;;;;;;7.67;95.67;102675.06;10588145;28;20112;-79
2021/11/24 04:03:04;;;;;;;18.95;16.50;;;;;;;7.63;95.85;102670.09;10586979;28;20031;-79
2021/11/24 04:08:05;;;;;;;28.50;18.00;;;;;;;7.63;95.93;102673.66;10552099;28;20025;-79
2021/11/24 04:13:05;;;;;;;29.55;17.58;;;;;;;7.69;96.10;102670.41;10587543;28;20051;-79
2021/11/24 04:18:06;;;;;;;28.38;17.88;;;;;;;7.69;95.74;102664.19;10586537;28;20437;-79
2021/11/24 04:23:06;;;;;;;24.10;17.95;;;;;;;7.69;96.23;102653.38;10587902;28;20070;-80
2021/11/24 04:28:07;;;;;;;24.23;17.48;;;;;;;7.74;95.91;102650.28;10569072;28;20048;-78
2021/11/24 04:33:07;;;;;;;32.50;19.95;;;;;;;7.74;95.99;102640.34;10585844;28;20483;-79
2021/11/24 04:38:08;;;;;;;36.70;19.55;;;;;;;7.73;96.24;102643.19;10585900;28;20043;-79
2021/11/24 04:43:11;;;;;;;23.50;17.83;;;;;;;7.73;96.40;102635.94;10585952;28;20042;-79
2021/11/24 04:48:11;;;;;;;28.13;19.40;;;;;;;7.76;96.36;102634.81;10585261;28;20050;-79
2021/11/24 04:53:12;;;;;;;26.80;18.77;;;;;;;7.74;96.65;102617.91;10586141;28;20046;-79
2021/11/24 04:58:12;;;;;;;32.47;17.63;;;;;;;7.71;96.48;102618.19;10585425;28;20032;-79
2021/11/24 05:03:13;;;;;;;30.80;19.70;;;;;;;7.69;96.70;102612.94;10586484;28;20066;-79
2021/11/24 05:08:13;;;;;;;23.63;18.38;;;;;;;7.65;96.42;102606.09;10586058;28;20039;-79
2021/11/24 05:13:14;;;;;;;22.40;17.98;;;;;;;7.72;96.69;102609.09;10566122;28;20076;-77
2021/11/24 05:18:22;;;;;;;20.15;17.92;;;;;;;7.71;96.76;102604.69;10556472;28;20027;-81
2021/11/24 05:23:25;;;;;;;28.25;20.02;;;;;;;7.71;96.61;102593.91;10585815;28;20036;-79
2021/11/24 05:28:25;;;;;;;26.02;18.42;;;;;;;7.66;96.34;102589.78;10583416;28;20124;-79
2021/11/24 05:33:26;;;;;;;26.15;18.48;;;;;;;7.62;96.74;102588.34;10564910;28;20088;-78
2021/11/24 05:38:26;;;;;;;33.95;21.92;;;;;;;7.65;96.81;102596.16;10564811;28;20478;-80
2021/11/24 05:43:29;;;;;;;32.55;21.55;;;;;;;7.69;96.67;102603.00;10581650;28;20094;-80
2021/11/24 05:48:29;;;;;;;29.35;21.92;;;;;;;7.72;96.35;102601.84;10567956;28;20063;-81
2021/11/24 05:53:29;;;;;;;30.45;23.20;;;;;;;7.66;96.41;102597.03;10576860;28;20040;-81
2021/11/24 05:58:30;;;;;;;33.45;23.80;;;;;;;7.64;96.71;102588.22;10599425;28;20035;-81
2021/11/24 06:03:30;;;;;;;37.22;22.20;;;;;;;7.68;96.70;102574.31;10573679;28;20394;-76
2021/11/24 06:08:30;;;;;;;32.00;21.60;;;;;;;7.71;96.86;102570.50;10482112;28;20048;-78
2021/11/24 06:13:31;;;;;;;34.65;25.65;;;;;;;7.72;96.43;102564.09;10582171;28;20047;-78
2021/11/24 06:18:31;;;;;;;36.80;24.65;;;;;;;7.73;97.01;102564.97;10547721;28;20036;-78
2021/11/24 06:23:33;;;;;;;31.65;25.45;;;;;;;7.72;96.51;102563.25;10581804;28;20067;-78
2021/11/24 06:28:33;;;;;;;35.63;25.85;;;;;;;7.69;96.83;102549.06;10564591;28;20055;-78
2021/11/24 06:33:34;;;;;;;35.95;26.33;;;;;;;7.68;96.84;102558.13;10582483;28;20039;-78
2021/11/24 06:38:34;;;;;;;62.28;30.27;;;;;;;7.68;97.11;102541.94;10583502;28;20336;-77
2021/11/24 06:43:35;;;;;;;35.33;25.70;;;;;;;7.69;96.64;102549.06;10582902;28;20114;-78
2021/11/24 06:48:36;;;;;;;34.72;26.10;;;;;;;7.64;96.54;102535.13;10564524;28;20031;-77
2021/11/24 06:53:36;;;;;;;38.42;25.58;;;;;;;7.60;96.79;102544.50;10550566;28;20437;-78
2021/11/24 06:58:36;;;;;;;38.13;26.20;;;;;;;7.64;96.67;102534.28;10590945;28;20032;-78
2021/11/24 07:03:37;;;;;;;37.03;27.58;;;;;;;7.63;96.76;102532.59;10590484;28;20390;-78
2021/11/24 07:08:37;;;;;;;32.50;27.20;;;;;;;7.59;96.63;102518.50;10590410;28;20106;-77
2021/11/24 07:13:38;;;;;;;28.55;24.20;;;;;;;7.58;96.78;102522.22;10571758;28;20046;-78
2021/11/24 07:18:38;;;;;;;29.60;24.20;;;;;;;7.64;97.05;102524.34;10587951;28;20490;-78
2021/11/24 07:23:38;;;;;;;38.55;24.88;;;;;;;7.67;96.76;102532.16;10587935;28;20039;-78
2021/11/24 07:28:39;;;;;;;32.72;24.27;;;;;;;7.61;97.15;102531.88;10569848;28;20126;-78
2021/11/24 07:33:39;;;;;;;45.28;24.42;;;;;;;7.61;97.35;102531.88;10589249;28;20382;-77
2021/11/24 07:38:40;;;;;;;44.15;23.80;;;;;;;7.68;96.89;102527.63;10573138;28;20071;-77
2021/11/24 07:43:41;;;;;;;37.08;20.10;;;;;;;7.67;97.13;102523.22;10587633;28;20039;-78
2021/11/24 07:48:41;;;;;;;30.33;20.33;;;;;;;7.76;97.01;102532.34;10572910;28;20483;-78
2021/11/24 07:53:42;;;;;;;22.95;17.42;;;;;;;7.87;97.14;102529.50;10570171;28;20135;-78
2021/11/24 07:58:42;;;;;;;26.73;20.15;;;;;;;7.85;97.04;102510.78;10568577;28;20114;-76
2021/11/24 08:03:43;;;;;;;23.75;18.92;;;;;;;7.87;97.21;102506.06;10568036;28;20138;-77
2021/11/24 08:08:43;;;;;;;27.30;18.15;;;;;;;7.89;97.09;102496.00;10587515;28;20080;-78
2021/11/24 08:13:43;;;;;;;22.38;16.90;;;;;;;7.88;97.33;102499.72;10587709;28;20036;-77
2021/11/24 08:18:44;;;;;;;25.85;18.27;;;;;;;7.91;97.62;102501.25;10590096;28;20471;-77
2021/11/24 08:23:44;;;;;;;24.13;15.65;;;;;;;7.89;97.49;102487.06;10587756;28;20450;-78
2021/11/24 08:28:45;;;;;;;22.58;16.00;;;;;;;7.95;97.58;102486.50;10569242;28;20044;-77
2021/11/24 08:33:45;;;;;;;24.70;15.30;;;;;;;8.02;97.53;102484.94;10568687;28;20036;-77
2021/11/24 08:38:46;;;;;;;19.63;14.35;;;;;;;8.08;97.72;102480.84;10586970;28;20031;-78
2021/11/24 08:43:46;;;;;;;18.73;13.07;;;;;;;8.13;97.38;102473.16;10587940;28;20035;-77
2021/11/24 08:48:46;;;;;;;20.80;13.25;;;;;;;8.10;97.61;102468.91;10568604;28;20032;-78
2021/11/24 08:53:47;;;;;;;19.23;13.40;;;;;;;8.13;97.48;102463.19;10567874;28;20485;-78
2021/11/24 08:58:47;;;;;;;18.98;13.23;;;;;;;8.10;97.69;102463.50;10585530;28;20069;-78
2021/11/24 09:03:47;;;;;;;18.55;12.70;;;;;;;8.15;97.12;102458.53;10586219;28;20035;-78
2021/11/24 09:08:48;;;;;;;15.90;13.20;;;;;;;8.16;97.66;102454.81;10586169;28;20030;-78
2021/11/24 09:13:48;;;;;;;16.05;12.00;;;;;;;8.19;97.39;102463.63;10567122;28;20039;-78
2021/11/24 09:18:49;;;;;;;13.02;11.65;;;;;;;8.24;97.21;102456.81;10586455;28;20119;-78
2021/11/24 09:23:50;;;;;;;12.75;11.45;;;;;;;8.14;97.19;102456.81;10567936;28;20070;-78
2021/11/24 09:28:51;;;;;;;17.95;12.35;;;;;;;8.21;97.35;102450.84;10585215;28;20405;-78
2021/11/24 09:33:51;;;;;;;16.83;13.50;;;;;;;8.18;97.38;102443.91;10586222;28;20035;-78
2021/11/24 09:38:52;;;;;;;23.85;11.95;;;;;;;8.14;97.34;102440.63;10566955;28;20076;-77
2021/11/24 09:43:55;;;;;;;14.38;11.63;;;;;;;8.15;97.50;102431.53;10567833;28;20035;-78
2021/11/24 09:48:55;;;;;;;14.93;11.45;;;;;;;8.25;97.57;102423.41;10549688;28;20063;-78
2021/11/24 09:53:55;;;;;;;12.70;9.55;;;;;;;8.24;96.42;102420.88;10550872;28;20051;-78
2021/11/24 09:58:56;;;;;;;11.38;8.90;;;;;;;8.23;97.07;102421.84;10585451;28;20455;-78
2021/11/24 10:03:56;;;;;;;12.40;9.85;;;;;;;8.34;97.51;102419.00;10565505;28;20027;-78
2021/11/24 10:08:57;;;;;;;13.50;8.27;;;;;;;8.36;97.05;102414.34;10583177;28;20032;-78
2021/11/24 10:13:58;;;;;;;17.75;9.68;;;;;;;8.41;97.00;102406.66;10564070;28;20028;-78
2021/11/24 10:19:10;;;;;;;10.15;8.10;;;;;;;8.60;97.16;102397.66;10582180;28;20031;-78
2021/11/24 10:24:11;;;;;;;10.30;7.57;;;;;;;8.64;97.53;102395.50;10547173;28;20023;-77
2021/11/24 10:29:13;;;;;;;10.90;7.55;;;;;;;8.67;97.18;102379.84;10590152;28;20072;-78
2021/11/24 10:34:24;;;;;;;22.20;9.50;;;;;;;8.76;97.12;102362.75;10596157;28;20036;-77
2021/11/24 10:39:24;;;;;;;13.45;7.88;;;;;;;8.77;97.09;102360.91;10591304;28;20059;-78
2021/11/24 10:44:27;;;;;;;8.52;7.55;;;;;;;8.73;96.31;102356.81;10557410;28;20058;-79
2021/11/24 10:49:36;;;;;;;7.95;7.18;;;;;;;8.74;95.75;102353.09;10572827;28;20409;-78
2021/11/24 10:54:36;;;;;;;7.25;5.97;;;;;;;8.77;96.47;102339.28;10591859;28;20059;-76
2021/11/24 10:59:39;;;;;;;7.15;5.32;;;;;;;8.80;96.20;102323.63;10591454;28;20058;-78
2021/11/24 11:04:54;;;;;;;7.65;6.03;;;;;;;8.79;96.22;102308.44;10572282;28;20036;-78
2021/11/24 11:10:09;;;;;;;8.75;5.97;;;;;;;8.81;95.11;102292.09;10572308;28;20024;-78
2021/11/24 11:15:14;;;;;;;7.30;6.57;;;;;;;8.92;95.73;102288.31;10573558;28;20027;-78
2021/11/24 11:20:15;;;;;;;7.10;5.82;;;;;;;9.04;95.63;102266.31;10571048;28;20485;-78
2021/11/24 11:25:15;;;;;;;6.90;5.28;;;;;;;9.02;94.16;102264.78;10554425;28;20067;-78
2021/11/24 11:30:16;;;;;;;6.65;5.45;;;;;;;9.16;94.98;102249.88;10546437;28;20089;-78
2021/11/24 11:35:16;;;;;;;8.43;6.55;;;;;;;9.19;95.71;102236.91;10546283;28;20064;-77
2021/11/24 11:40:17;;;;;;;8.15;6.15;;;;;;;9.28;96.28;102232.41;10544304;28;20047;-78
2021/11/24 11:45:18;;;;;;;9.00;6.75;;;;;;;9.28;96.05;102221.59;10546459;28;20063;-79
2021/11/24 11:50:37;;;;;;;9.35;5.05;;;;;;;9.14;94.49;102222.16;10528282;28;20422;-78
2021/11/24 11:55:38;;;;;;;11.90;6.45;;;;;;;9.03;93.92;102216.00;10545073;28;20032;-77
2021/11/24 12:00:38;;;;;;;5.53;5.00;;;;;;;8.90;92.26;102193.91;10544282;28;20040;-78
2021/11/24 12:06:14;;;;;;;7.28;5.90;;;;;;;8.93;93.55;102190.03;10546238;28;20067;-77
2021/11/24 12:11:15;;;;;;;9.38;7.28;;;;;;;9.02;94.06;102187.25;10544130;28;20113;-77
2021/11/24 12:16:39;;;;;;;7.75;6.60;;;;;;;9.14;94.76;102187.88;10530824;28;20541;-78
2021/11/24 12:21:50;;;;;;;8.68;6.22;;;;;;;9.33;95.26;102186.84;10544107;28;20038;-79
2021/11/24 12:26:54;;;;;;;6.70;5.55;;;;;;;9.26;95.27;102170.41;10545092;28;20032;-77
2021/11/24 12:32:01;;;;;;;8.35;6.70;;;;;;;9.28;95.45;102160.28;10568819;28;20172;-79
2021/11/24 12:37:01;;;;;;;6.68;5.75;;;;;;;9.27;95.45;102152.31;10570751;28;20038;-77
2021/11/24 12:42:02;;;;;;;7.40;6.00;;;;;;;9.10;92.58;102145.13;10570238;28;20058;-78
2021/11/24 12:47:06;;;;;;;11.50;5.13;;;;;;;8.74;90.64;102115.41;10573295;28;20059;-79
2021/11/24 12:52:06;;;;;;;5.55;5.03;;;;;;;8.77;93.34;102112.41;10555601;28;20099;-78
2021/11/24 12:57:06;;;;;;;18.05;6.20;;;;;;;8.70;92.88;102109.50;10586239;28;20458;-78
2021/11/24 13:02:11;;;;;;;6.10;4.82;;;;;;;8.97;94.96;102113.09;10588109;28;20087;-78
2021/11/24 13:07:22;;;;;;;6.18;4.43;;;;;;;8.94;94.50;102089.94;10569283;28;20023;-77
2021/11/24 13:12:23;;;;;;;12.13;4.13;;;;;;;8.81;93.23;102082.25;10585493;28;20031;-77
2021/11/24 13:17:26;;;;;;;7.10;5.43;;;;;;;8.72;93.10;102087.75;10568233;28;20045;-76
2021/11/24 13:22:32;;;;;;;5.13;4.65;;;;;;;8.83;94.88;102073.97;10567404;28;20027;-78
2021/11/24 13:27:41;;;;;;;13.35;5.25;;;;;;;8.99;95.52;102068.69;10584266;28;20048;-78
2021/11/24 13:32:54;;;;;;;5.70;4.68;;;;;;;8.85;92.32;102063.88;10586680;28;20474;-78
2021/11/24 13:37:56;;;;;;;5.13;4.65;;;;;;;8.76;92.75;102068.34;10585160;28;20059;-78
2021/11/24 13:42:56;;;;;;;5.22;4.30;;;;;;;8.77;93.61;102045.72;10585797;28;20042;-78
2021/11/24 13:48:15;;;;;;;4.82;4.40;;;;;;;8.69;91.93;102043.00;10566502;28;20059;-78
2021/11/24 13:53:27;;;;;;;7.25;4.30;;;;;;;8.79;94.00;102038.34;10585597;28;20051;-78
2021/11/24 13:58:27;;;;;;;14.55;4.53;;;;;;;8.80;94.05;102022.97;10566645;28;20106;-79
2021/11/24 14:03:28;;;;;;;5.90;4.68;;;;;;;8.84;94.86;102021.66;10566429;28;20114;-79
2021/11/24 14:08:37;;;;;;;5.25;4.75;;;;;;;8.72;93.43;102010.28;10584250;28;20039;-77
2021/11/24 14:13:37;;;;;;;6.50;4.80;;;;;;;8.71;92.58;102010.41;10565300;28;20043;-78
2021/11/24 14:18:38;;;;;;;8.07;5.18;;;;;;;8.59;92.67;102012.53;10583913;28;20042;-77
2021/11/24 14:23:38;;;;;;;4.32;3.88;;;;;;;8.58;93.43;101998.19;10565491;28;20036;-78
2021/11/24 14:28:39;;;;;;;9.48;5.60;;;;;;;8.65;94.04;101989.44;10566119;28;20132;-78
2021/11/24 14:33:39;;;;;;;5.72;5.13;;;;;;;8.60;93.65;101985.38;10585322;28;20114;-78
2021/11/24 14:38:40;;;;;;;7.15;5.15;;;;;;;8.56;93.72;101973.19;10583486;28;20042;-78
2021/11/24 14:43:40;;;;;;;9.02;5.57;;;;;;;8.40;93.05;101964.16;10565381;28;20067;-78
2021/11/24 14:48:40;;;;;;;4.72;3.90;;;;;;;8.25;91.87;101951.16;10582792;28;20140;-77
2021/11/24 14:53:41;;;;;;;6.85;4.70;;;;;;;8.14;91.64;101949.56;10581992;28;20092;-78
2021/11/24 14:58:42;;;;;;;7.93;5.03;;;;;;;8.16;93.09;101952.94;10547097;28;20028;-77
2021/11/24 15:03:42;;;;;;;5.80;5.20;;;;;;;8.10;91.99;101944.63;10584919;28;20110;-78
2021/11/24 15:08:42;;;;;;;7.45;6.25;;;;;;;8.10;93.23;101939.22;10583929;28;20060;-78
2021/11/24 15:13:43;;;;;;;5.25;4.70;;;;;;;8.02;92.88;101931.09;10566317;28;20111;-78
2021/11/24 15:18:44;;;;;;;8.27;6.10;;;;;;;8.06;93.54;101927.91;10589916;28;20035;-77
2021/11/24 15:23:44;;;;;;;11.77;6.22;;;;;;;8.01;93.46;101918.59;10590350;28;20023;-78
2021/11/24 15:28:45;;;;;;;6.32;5.50;;;;;;;8.03;93.92;101901.25;10589050;28;20115;-78
2021/11/24 15:33:45;;;;;;;8.43;6.00;;;;;;;7.94;93.99;101904.88;10589386;28;20043;-77
2021/11/24 15:38:48;;;;;;;6.70;5.53;;;;;;;7.97;94.27;101903.72;10588991;28;20040;-78
2021/11/24 15:43:48;;;;;;;5.60;5.05;;;;;;;7.97;94.43;101899.16;10570940;28;20036;-77
2021/11/24 15:48:49;;;;;;;6.43;5.78;;;;;;;7.97;94.05;101893.78;10589582;28;20115;-78
2021/11/24 15:53:49;;;;;;;6.82;6.22;;;;;;;7.92;94.17;101885.31;10570916;28;20077;-78
2021/11/24 15:58:50;;;;;;;8.38;6.53;;;;;;;7.85;94.18;101876.16;10586517;28;20421;-77
2021/11/24 16:03:51;;;;;;;15.73;7.15;;;;;;;7.86;94.12;101876.00;10586598;28;20028;-78
2021/11/24 16:08:52;;;;;;;8.27;6.32;;;;;;;7.85;94.45;101873.47;10568166;28;20085;-77
2021/11/24 16:13:52;;;;;;;9.15;6.88;;;;;;;7.84;94.41;101853.72;10586201;28;20092;-78
2021/11/24 16:18:53;;;;;;;8.07;7.28;;;;;;;7.85;94.26;101854.59;10587331;28;20463;-77
2021/11/24 16:23:53;;;;;;;7.72;6.93;;;;;;;7.80;94.39;101855.03;10587573;28;20107;-78
2021/11/24 16:28:53;;;;;;;9.93;7.70;;;;;;;7.71;93.84;101841.66;10551467;28;20043;-78
2021/11/24 16:33:54;;;;;;;7.78;6.97;;;;;;;7.58;93.38;101834.81;10587215;28;20039;-78
2021/11/24 16:38:55;;;;;;;7.57;6.88;;;;;;;7.47;92.96;101837.75;10566819;28;20047;-78
2021/11/24 16:43:55;;;;;;;10.25;6.88;;;;;;;7.41;92.92;101839.19;10585489;28;20084;-79
2021/11/24 16:48:56;;;;;;;8.05;7.22;;;;;;;7.42;93.18;101832.81;10567699;28;20042;-78
2021/11/24 16:53:56;;;;;;;8.52;7.70;;;;;;;7.42;93.67;101837.34;10590778;28;20390;-79
2021/11/24 16:58:56;;;;;;;10.40;7.43;;;;;;;7.40;93.62;101820.47;10587155;28;20535;-78
2021/11/24 17:03:57;;;;;;;9.30;6.47;;;;;;;7.42;93.70;101819.31;10567870;28;20059;-78
2021/11/24 17:08:57;;;;;;;7.75;7.00;;;;;;;7.42;93.59;101813.94;10584513;28;20032;-78
2021/11/24 17:13:57;;;;;;;6.40;5.60;;;;;;;7.42;93.64;101805.00;10549596;28;20039;-78
2021/11/24 17:18:58;;;;;;;6.40;5.75;;;;;;;7.32;92.89;101791.63;10567334;28;20465;-78
2021/11/24 17:23:58;;;;;;;6.95;6.30;;;;;;;7.26;92.34;101796.78;10587030;28;20066;-78
2021/11/24 17:28:59;;;;;;;7.05;5.50;;;;;;;7.23;92.00;101795.25;10583924;28;20039;-77
2021/11/24 17:33:59;;;;;;;9.65;5.65;;;;;;;7.23;92.11;101787.16;10585046;28;20114;-78
2021/11/24 17:39:00;;;;;;;9.13;5.85;;;;;;;7.17;91.16;101767.06;10567222;28;20442;-78
2021/11/24 17:44:00;;;;;;;12.55;6.70;;;;;;;7.12;91.20;101769.38;10566089;28;20136;-78
2021/11/24 17:49:00;;;;;;;7.60;6.20;;;;;;;7.14;91.46;101761.13;10565161;28;20036;-78
2021/11/24 17:54:01;;;;;;;7.38;6.20;;;;;;;7.02;91.05;101741.69;10584091;28;20455;-77
2021/11/24 17:59:01;;;;;;;7.35;6.65;;;;;;;6.96;90.86;101745.00;10584470;28;20027;-78
2021/11/24 18:04:02;;;;;;;9.90;8.38;;;;;;;6.91;90.99;101737.34;10565058;28;20160;-78
2021/11/24 18:09:03;;;;;;;6.40;5.78;;;;;;;7.03;92.21;101746.06;10584084;28;20040;-78
2021/11/24 18:14:03;;;;;;;7.95;5.75;;;;;;;7.01;91.83;101748.06;10549052;28;20356;-78
2021/11/24 18:19:04;;;;;;;9.13;6.63;;;;;;;7.05;92.20;101745.91;10583240;28;20092;-78
2021/11/24 18:24:04;;;;;;;11.25;7.00;;;;;;;7.10;92.81;101746.28;10565781;28;20049;-79
2021/11/24 18:29:05;;;;;;;13.20;7.40;;;;;;;7.11;92.84;101735.34;10549638;28;20043;-78
2021/11/24 18:34:05;;;;;;;9.55;6.88;;;;;;;7.13;93.19;101733.38;10550822;28;20040;-79
2021/11/24 18:39:06;;;;;;;11.27;6.47;;;;;;;7.14;93.39;101736.91;10565244;28;20036;-79
2021/11/24 18:44:07;;;;;;;6.95;6.25;;;;;;;7.12;93.61;101728.97;10547277;28;20036;-78
2021/11/24 18:49:07;;;;;;;8.02;7.22;;;;;;;7.11;93.87;101727.28;10567391;28;20032;-78
2021/11/24 18:54:08;;;;;;;7.97;5.78;;;;;;;7.10;94.14;101736.38;10572382;28;20451;-79
2021/11/24 18:59:09;;;;;;;9.10;7.15;;;;;;;7.16;94.44;101726.81;10554648;28;20040;-78
2021/11/24 19:04:09;;;;;;;11.00;7.97;;;;;;;7.15;94.12;101719.75;10574212;28;20071;-79
2021/11/24 19:09:09;;;;;;;11.80;8.23;;;;;;;7.12;94.08;101710.13;10577142;28;20031;-78
2021/11/24 19:14:10;;;;;;;11.07;7.68;;;;;;;7.02;92.89;101708.50;10576346;28;20031;-78
2021/11/24 19:19:10;;;;;;;8.68;7.43;;;;;;;7.03;93.67;101705.66;10590189;28;20378;-77
2021/11/24 19:24:11;;;;;;;10.35;9.30;;;;;;;7.01;93.39;101704.97;10589296;28;20043;-78
2021/11/24 19:29:11;;;;;;;10.75;9.25;;;;;;;7.07;94.08;101706.19;10569842;28;20479;-78
2021/11/24 19:34:12;;;;;;;16.48;10.15;;;;;;;7.14;94.15;101701.88;10593510;28;20169;-78
2021/11/24 19:39:12;;;;;;;13.80;11.15;;;;;;;7.10;94.22;101697.81;10595743;28;20032;-78
2021/11/24 19:44:15;;;;;;;11.23;8.95;;;;;;;7.09;94.73;101694.28;10572853;28;20063;-77
2021/11/24 19:49:15;;;;;;;15.55;11.57;;;;;;;7.10;95.37;101685.19;10570440;28;20031;-79
2021/11/24 19:54:16;;;;;;;14.82;11.07;;;;;;;7.13;95.01;101679.50;10588310;28;20039;-77
2021/11/24 19:59:16;;;;;;;13.27;10.88;;;;;;;7.14;95.31;101667.69;10589336;28;20032;-78
2021/11/24 20:04:17;;;;;;;21.17;12.90;;;;;;;7.19;95.16;101662.72;10568854;28;20035;-78
2021/11/24 20:09:17;;;;;;;14.20;11.70;;;;;;;7.19;95.32;101668.09;10571582;28;20111;-78
2021/11/24 20:14:17;;;;;;;19.88;13.02;;;;;;;7.06;94.30;101661.44;10571090;28;20039;-78
2021/11/24 20:19:24;;;;;;;18.77;13.32;;;;;;;7.05;94.55;101657.91;10589412;28;20042;-79
2021/11/24 20:24:24;;;;;;;23.05;14.05;;;;;;;7.01;94.54;101659.19;10570306;28;20032;-77
2021/11/24 20:29:26;;;;;;;27.60;16.15;;;;;;;6.95;94.29;101655.25;10568575;28;20406;-78
2021/11/24 20:34:26;;;;;;;35.05;19.08;;;;;;;7.03;94.99;101659.06;10587529;28;20044;-78
2021/11/24 20:39:28;;;;;;;29.75;21.65;;;;;;;7.01;95.09;101647.56;10551990;28;20490;-78
2021/11/24 20:44:28;;;;;;;32.45;21.80;;;;;;;6.97;95.04;101649.75;10569609;28;20097;-77
2021/11/24 20:49:29;;;;;;;32.38;24.50;;;;;;;6.93;94.69;101645.66;10568402;28;20094;-78
2021/11/24 20:54:30;;;;;;;36.00;24.73;;;;;;;6.96;94.88;101639.97;10585288;28;20035;-78
2021/11/24 20:59:30;;;;;;;34.13;26.23;;;;;;;6.93;95.02;101624.97;10586015;28;20032;-78
2021/11/24 21:04:31;;;;;;;34.80;26.00;;;;;;;6.90;94.52;101625.28;10566396;28;20042;-78
2021/11/24 21:09:31;;;;;;;31.88;25.95;;;;;;;6.95;94.98;101617.56;10585079;28;20058;-78
2021/11/24 21:14:32;;;;;;;33.97;25.25;;;;;;;6.91;94.91;101621.59;10585559;28;20409;-78
2021/11/24 21:19:33;;;;;;;34.88;25.30;;;;;;;6.93;94.84;101605.28;10584139;28;20027;-77
2021/11/24 21:24:33;;;;;;;33.00;26.20;;;;;;;6.92;94.76;101600.88;10568571;28;20449;-79
2021/11/24 21:29:34;;;;;;;33.25;24.98;;;;;;;6.88;94.74;101600.34;10590241;28;20471;-77
2021/11/24 21:34:35;;;;;;;37.20;26.88;;;;;;;6.94;94.55;101605.13;10584852;28;20039;-78
2021/11/24 21:39:35;;;;;;;34.67;27.25;;;;;;;6.95;94.94;101595.19;10584210;28;20077;-77
2021/11/24 21:44:36;;;;;;;45.40;28.92;;;;;;;6.95;94.55;101584.41;10566883;28;20032;-77
2021/11/24 21:49:36;;;;;;;46.33;28.58;;;;;;;6.93;94.58;101581.91;10585006;28;20035;-77
2021/11/24 21:54:37;;;;;;;33.95;26.38;;;;;;;6.93;94.88;101578.34;10551437;28;20023;-77
2021/11/24 21:59:37;;;;;;;40.65;27.30;;;;;;;6.93;95.36;101570.28;10585057;28;20031;-77
2021/11/24 22:04:38;;;;;;;40.78;29.27;;;;;;;6.83;95.05;101556.03;10584327;28;20087;-77
2021/11/24 22:14:57;;;;;;;42.60;29.02;;;;;;;6.84;95.46;101555.91;10567360;28;20024;-77
2021/11/24 22:19:57;;;;;;;44.60;31.38;;;;;;;6.84;95.27;101555.91;10563973;28;20064;-76
2021/11/24 22:24:58;;;;;;;38.95;26.73;;;;;;;6.90;95.01;101554.44;10567137;28;20092;-77
2021/11/24 22:29:58;;;;;;;42.10;29.40;;;;;;;6.88;95.24;101542.97;10572089;28;20044;-77
2021/11/24 22:34:59;;;;;;;39.08;29.60;;;;;;;6.89;95.18;101539.28;10572310;28;20067;-77
2021/11/24 22:39:59;;;;;;;39.28;28.85;;;;;;;6.91;95.63;101539.97;10589884;28;20036;-77
2021/11/24 22:44:59;;;;;;;37.40;27.30;;;;;;;6.89;95.30;101531.19;10590595;28;20535;-77
2021/11/24 22:50:00;;;;;;;46.80;29.95;;;;;;;6.90;95.40;101527.50;10555539;28;20100;-76
2021/11/24 22:55:00;;;;;;;47.60;29.83;;;;;;;6.90;95.22;101527.50;10591187;28;20035;-77
2021/11/24 23:00:01;;;;;;;37.83;26.00;;;;;;;6.87;95.57;101534.06;10592450;28;20031;-76
2021/11/24 23:05:01;;;;;;;51.17;29.00;;;;;;;6.83;96.15;101542.59;10574131;28;20118;-77